x

West Gulf - 207 Nm East Of Brownsville, Tx (42002) Wave Buoy

11:50am - Fri 25th Jul 2014 All times are CDT. -5 hours from GMT.

  • Sig Wave height 1.0ft
  • Swell Direction
  • Peak Period 9s
  • Average Period 4s
  • Wind
    7mph, 9mph gusts
  • Sea Temp 85°f
  • Air Temp 84°f
  • Sea Pressure 1018.4mb
  • West Gulf - 207 Nm East Of Brownsville, Tx
  • West Gulf - 207 Nm East Of Brownsville, Tx

More Historic Weather Station data

Upgrade to MSW Pro to gain access to the past 30 days of data for over 8000 Wavebouys and Weather Stations around the globe.

Join Pro

Comparision Forecast

View Surf forecast
   
Fri 07/25 11:50am 1ft 9s 4s 7 9 mph 1018.4mb 85f 84f
10:50am 1ft 10s 4s 7
mph
1018mb 85f 84f
9:50am 1ft 10s 4s 7 9 mph 1017.7mb 85f 84f
8:50am 1ft 9s 4s 7 9 mph 1017.1mb 85f 84f
7:50am 1ft 8s 4s 9 11 mph 1016.7mb 85f 84f
6:50am 1ft 8s 4s 9 11 mph 1016.1mb 85f 83f
5:50am 1ft 9s 3s 9 11 mph 1015.9mb 85f 84f
4:50am 1ft 8s 3s 11 13 mph 1015.7mb 85f 83f
3:50am 1ft 8s 4s 11 13 mph 1015.9mb 85f 84f
2:50am 1ft 8s 4s 11 13 mph 1016.3mb 85f 84f
1:50am 1ft 8s 5s 11
mph
1016.5mb 85f 84f
12:50am 1ft 8s 4s 9 11 mph 1016.6mb 85f 84f
Thu 07/24 11:50pm 1ft 8s 4s 9 11 mph 1016.8mb 85f 84f
10:50pm 1ft 8s 4s 7
mph
1016.3mb 85f 83f
9:50pm 1ft 8s 4s 4 7 mph 1015.8mb 85f 83f
8:50pm 1ft 9s 4s 4 7 mph 1015.5mb 85f 83f
7:50pm 1ft 7s 4s 2
mph
1015.3mb 86f 82f
6:50pm 1ft 9s 4s 2 9 mph 1015.1mb 86f 81f
5:50pm 1ft 8s 4s  -  2 mph 1015mb 86f 84f
4:50pm 1ft 5s 4s 2 4 mph 1015.2mb 86f 85f
3:50pm 1ft 9s 4s 4 7 mph 1015.5mb 86f 84f
2:50pm 1.3ft 8s 3s 4 7 mph 1015.8mb 85f 84f
1:50pm 1.3ft 9s 3s 4 7 mph 1016.4mb 85f 82f
12:50pm 1ft 9s 4s 11 16 mph 1016.8mb 85f 81f
11:50am 1ft 4s 4s 7 9 mph 1016.8mb 85f 80f
10:50am 1ft 8s 4s 18 25 mph 1016.6mb 85f 82f
9:50am 1ft 4s 4s 7 9 mph 1016.5mb 85f 84f
8:50am 1.3ft 4s 4s 9 11 mph 1016.1mb 85f 84f
7:50am 1.3ft 5s 4s 9
mph
1015.7mb 85f 83f
6:50am 1.3ft 5s 4s 7 9 mph 1015.5mb 85f 83f
5:50am 1.3ft 5s 4s 9 13 mph 1014.9mb 85f 83f
4:50am 1.3ft 5s 4s 7 9 mph 1015mb 85f 83f
3:50am 1.3ft 5s 4s 11 13 mph 1014.7mb 85f 83f
2:50am 1.3ft 5s 4s 9
mph
1015mb 85f 83f
1:50am 1ft 5s 4s 7 9 mph 1015.6mb 86f 83f
12:50am 1ft 5s 4s 4 7 mph 1016.1mb 86f 84f
Wed 07/23 11:50pm 1ft 5s 4s 4 7 mph 1016.7mb 86f 84f
10:50pm 1ft 5s 4s 4
mph
1016.8mb 86f 85f
9:50pm 1ft 5s 4s 2 4 mph 1016.3mb 86f 84f
8:50pm 1ft 5s 4s 2 4 mph 1015.2mb 87f 84f
7:50pm 1ft 5s 4s 2 4 mph 1014.4mb 87f 84f
6:50pm 1ft 5s 4s  -  2 mph 1014.7mb 88f 85f
5:50pm 1ft 5s 4s  -  2 mph 1014.9mb 89f 85f
4:50pm 1ft 5s 4s  -  2 mph 1015.4mb 88f 84f
3:50pm 1ft 5s 4s 2
mph
1016.3mb 87f 84f
2:50pm 1ft 5s 4s 4 13 mph 1017.4mb 88f 84f
1:50pm 1.3ft 5s 4s 2 4 mph 1017.3mb 87f 84f
12:50pm 1ft 5s 4s 4 7 mph 1017.7mb 86f 84f
11:50am 1.3ft 5s 4s 7 9 mph 1017.6mb 85f 84f
10:50am 1.3ft 4s 4s 7 9 mph 1017.6mb 85f 84f
9:50am 1ft 5s 4s 7 9 mph 1017.6mb 85f 84f
8:50am 1ft 5s 4s 7 9 mph 1017.4mb 85f 84f
7:50am 1ft 5s 4s 7 9 mph 1017.1mb 85f 84f
6:50am 1ft 5s 4s 7
mph
1016.7mb 85f 83f
5:50am 1ft 4s 4s 7 9 mph 1016.3mb 85f 83f
4:50am 1.3ft 5s 4s 7 9 mph 1016mb 85f 83f
3:50am 1ft 5s 4s 9 11 mph 1016.2mb 85f 83f
2:50am 1.3ft 5s 4s 9
mph
1016.4mb 86f 84f
1:50am 1.3ft 5s 4s 9 11 mph 1016.2mb 86f 84f
12:50am 1.3ft 5s 4s 9 11 mph 1016.5mb 86f 84f
Tue 07/22 11:50pm 1.3ft 5s 4s 9
mph
1016.8mb 86f 83f
10:50pm 1.3ft 5s 4s 4 7 mph 1016.9mb 86f 84f
9:50pm 1.3ft 5s 4s 2 4 mph 1016.7mb 86f 84f
8:50pm 1.6ft 5s 4s 2 4 mph 1016.5mb 86f 84f
7:50pm 1.3ft 5s 4s  -  2 mph 1016.3mb 87f 84f
6:50pm 1.3ft 5s 4s  -  2 mph 1016.2mb 88f 85f
5:50pm 1.6ft 5s 4s  -  mph 1016.3mb 88f 85f
4:50pm 1.6ft 6s 4s 4 7 mph 1016.2mb 88f 85f
3:50pm 1.6ft 6s 4s 4 7 mph 1016.4mb 87f 84f
2:50pm 1.6ft 6s 4s 4 7 mph 1016.7mb 87f 84f
1:50pm 2ft 6s 4s 4
mph
1017.4mb 87f 84f
12:50pm 2ft 6s 4s 4 7 mph 1017.6mb 85f 84f
11:50am 2ft 6s 4s 7
mph
1017.8mb 85f 84f
10:50am 2ft 6s 4s 4
mph
1017.8mb 85f 84f
9:50am 2.5ft 6s 4s  -  mph 1017.7mb 85f 85f
8:50am 2.5ft 6s 4s 7
mph
1017.2mb 84f 84f
7:50am 2ft 5s 4s 7 9 mph 1016.9mb 84f 83f
6:50am 2ft 5s 4s 7 9 mph 1016.3mb 84f 83f
5:50am 2ft 5s 4s 9 11 mph 1016mb 84f 83f
4:50am 2ft 5s 4s 11 13 mph 1015.3mb 85f 83f
3:50am 2ft 5s 4s 13 16 mph 1015.5mb 85f 83f
2:50am 2ft 6s 4s 11 13 mph 1015.5mb 85f 84f
1:50am 2ft 5s 4s 11 13 mph 1015.8mb 85f 84f
12:50am 1.6ft 5s 4s 9 11 mph 1016.2mb 85f 84f
Mon 07/21 11:50pm 1.6ft 5s 4s 11 13 mph 1016.4mb 85f 84f
10:50pm 1.6ft 5s 4s 9 11 mph 1016.3mb 85f 84f
9:50pm 1.6ft 5s 4s 9
mph
1016mb 85f 84f
8:50pm 1.6ft 6s 4s 7 9 mph 1015.8mb 85f 84f
7:50pm 1.6ft 6s 4s 9
mph
1015.7mb 85f 84f
6:50pm 2ft 6s 4s 9
mph
1015.6mb 85f 85f